עמוד ראשי
METAR-TAF:

METAR-TAF

שדות תעופה :

Tarapoto, פרו

קו רוחב: 06-27S, קו אורך: 076-23W, גובה: 281מטר

תצפית מזג אוויר נוכחית

הדו"ח נערך לפני 9 שעות ו 2דקות, בשעה 02:00 UTC
רוח 3קשר מכיוון צפון-מערב
טמפרטורת 25 צלסיוס
לחות 94%
לחץ 1011 hPa
ראות 10 קילומטר או יותר
מעט עננים בגובה 2500רגל

METAR: SPST 120200Z 32003KT 9999 FEW025 25/24 Q1011 RMK PP000

זמן: 06:02 (11:02 UTC)

תחזית

הדו"ח נערך לפני 11 שעות ו 57דקות, בשעה 23:05 UTC
תחזית בתוקף מ 12 ב 00 UTC עד 12 ב 24 UTC
רוח 7קשר מכיוון מערב/צפון-מערב
ראות 10 קילומטר או יותר
מעט עננים בגובה 2000רגל
עננים פזורים בגובה 10000רגל
יעשה מ
12 ב 10 UTC עד 12 ב 12 UTC
רוח 2קשר עם כיוונים משתנים
יעשה מ
12 ב 19 UTC עד 12 ב 21 UTC
רוח 7קשר מכיוון צפון

TAF: SPST 112305Z 1200/1224 30007KT 9999 FEW020 SCT100 TX36/1219Z TN21/1211Z BECMG 1210/1212 VRB02KT BECMG 1219/1221 36007KT

תצפיות ותחזיות מזג אוויר לגבי יותר מ- 4,000 שדות תעופה ברחבי העולם. דוחות METAR ו- TAF.

התחנות הזמינות מסומנות בנקודות צהובות ואדומות על גבי המפה.

העבר את העכבר לנקודה הצבעונית על מנת לראות את שם התחנה.

לאחר מכן, לחץ כדי לראות את תוכן ואת תחזיות מזג האוויר.

כדי לשנות את המפה: לחץ על הכפתורים הירוקים עם הפלוס השחור כדי להתקרב; על הכפתור הירוק עם המקף כדי להתרחק; או בחיצים הירוקים למפות סמוכות.


METAR-TAF: